sensor_id;sensor_type;location;lat;lon;timestamp;pressure;altitude;pressure_sealevel;temperature;humidity
84190;BME280;74321;53.406;8.146;2024-01-25T00:04:50;102329.16;;;5.57;95.74
84190;BME280;74321;53.406;8.146;2024-01-25T00:09:52;102244.09;;;4.88;96.38
84190;BME280;74321;53.406;8.146;2024-01-25T00:14:54;102271.63;;;4.78;98.35
84190;BME280;74321;53.406;8.146;2024-01-25T00:19:56;102365.63;;;5.57;97.71
84190;BME280;74321;53.406;8.146;2024-01-25T00:24:59;102321.22;;;5.49;96.87
84190;BME280;74321;53.406;8.146;2024-01-25T00:30:01;102346.81;;;5.54;96.98
84190;BME280;74321;53.406;8.146;2024-01-25T00:35:06;102362.44;;;5.42;97.74
84190;BME280;74321;53.406;8.146;2024-01-25T00:40:09;102349.72;;;5.21;98.77
84190;BME280;74321;53.406;8.146;2024-01-25T00:45:11;102367.66;;;5.26;99.55
84190;BME280;74321;53.406;8.146;2024-01-25T00:50:14;102330.59;;;4.91;100.00
84190;BME280;74321;53.406;8.146;2024-01-25T00:55:19;102343.28;;;5.10;100.00
84190;BME280;74321;53.406;8.146;2024-01-25T01:00:22;102362.75;;;4.90;100.00
84190;BME280;74321;53.406;8.146;2024-01-25T01:05:24;102370.47;;;5.13;100.00
84190;BME280;74321;53.406;8.146;2024-01-25T01:10:27;102391.16;;;5.01;100.00
84190;BME280;74321;53.406;8.146;2024-01-25T01:15:32;102386.94;;;5.01;100.00
84190;BME280;74321;53.406;8.146;2024-01-25T01:20:34;102395.63;;;5.06;100.00
84190;BME280;74321;53.406;8.146;2024-01-25T01:25:36;102388.84;;;4.88;100.00
84190;BME280;74321;53.406;8.146;2024-01-25T01:30:38;102405.19;;;5.12;100.00
84190;BME280;74321;53.406;8.146;2024-01-25T01:35:43;102405.91;;;4.90;100.00
84190;BME280;74321;53.406;8.146;2024-01-25T01:40:46;102405.63;;;5.21;100.00
84190;BME280;74321;53.406;8.146;2024-01-25T01:45:49;102396.44;;;5.05;100.00
84190;BME280;74321;53.406;8.146;2024-01-25T01:50:51;102407.00;;;5.15;100.00
84190;BME280;74321;53.406;8.146;2024-01-25T01:55:54;102410.88;;;5.06;100.00
84190;BME280;74321;53.406;8.146;2024-01-25T02:00:56;102372.09;;;4.91;100.00
84190;BME280;74321;53.406;8.146;2024-01-25T02:06:00;102348.78;;;4.81;100.00
84190;BME280;74321;53.406;8.146;2024-01-25T02:11:07;102386.94;;;5.01;100.00
84190;BME280;74321;53.406;8.146;2024-01-25T02:16:10;102433.00;;;5.09;100.00
84190;BME280;74321;53.406;8.146;2024-01-25T02:21:16;102444.28;;;4.96;100.00
84190;BME280;74321;53.406;8.146;2024-01-25T02:26:18;102448.94;;;5.05;100.00
84190;BME280;74321;53.406;8.146;2024-01-25T02:31:20;102385.31;;;4.65;100.00
84190;BME280;74321;53.406;8.146;2024-01-25T02:36:22;102435.75;;;4.76;100.00
84190;BME280;74321;53.406;8.146;2024-01-25T02:41:24;102455.28;;;4.77;100.00
84190;BME280;74321;53.406;8.146;2024-01-25T02:46:26;102457.63;;;4.73;100.00
84190;BME280;74321;53.406;8.146;2024-01-25T02:51:28;102453.41;;;4.73;100.00
84190;BME280;74321;53.406;8.146;2024-01-25T02:56:31;102478.84;;;4.93;100.00
84190;BME280;74321;53.406;8.146;2024-01-25T03:01:41;102488.09;;;4.73;100.00
84190;BME280;74321;53.406;8.146;2024-01-25T03:06:44;102471.03;;;4.88;100.00
84190;BME280;74321;53.406;8.146;2024-01-25T03:11:47;102483.28;;;4.61;100.00
84190;BME280;74321;53.406;8.146;2024-01-25T03:16:49;102484.09;;;4.60;100.00
84190;BME280;74321;53.406;8.146;2024-01-25T03:21:52;102418.69;;;4.19;100.00
84190;BME280;74321;53.406;8.146;2024-01-25T03:26:54;102404.63;;;4.08;100.00
84190;BME280;74321;53.406;8.146;2024-01-25T03:31:56;102475.84;;;4.64;100.00
84190;BME280;74321;53.406;8.146;2024-01-25T03:36:58;102490.53;;;4.54;100.00
84190;BME280;74321;53.406;8.146;2024-01-25T03:42:00;102421.19;;;4.01;100.00
84190;BME280;74321;53.406;8.146;2024-01-25T03:47:02;102487.38;;;4.40;100.00
84190;BME280;74321;53.406;8.146;2024-01-25T03:52:05;102518.41;;;4.52;100.00
84190;BME280;74321;53.406;8.146;2024-01-25T03:57:07;102513.25;;;4.50;100.00
84190;BME280;74321;53.406;8.146;2024-01-25T04:02:09;102492.00;;;4.31;100.00
84190;BME280;74321;53.406;8.146;2024-01-25T04:07:12;102497.34;;;4.37;100.00
84190;BME280;74321;53.406;8.146;2024-01-25T04:12:14;102530.47;;;4.56;100.00
84190;BME280;74321;53.406;8.146;2024-01-25T04:17:20;102467.75;;;4.19;100.00
84190;BME280;74321;53.406;8.146;2024-01-25T04:22:22;102493.59;;;4.12;100.00
84190;BME280;74321;53.406;8.146;2024-01-25T04:27:24;102477.28;;;3.89;100.00
84190;BME280;74321;53.406;8.146;2024-01-25T04:32:26;102556.63;;;4.21;100.00
84190;BME280;74321;53.406;8.146;2024-01-25T04:37:28;102553.78;;;4.31;100.00
84190;BME280;74321;53.406;8.146;2024-01-25T04:42:32;102562.66;;;4.23;100.00
84190;BME280;74321;53.406;8.146;2024-01-25T04:47:42;102446.44;;;3.48;100.00
84190;BME280;74321;53.406;8.146;2024-01-25T04:52:47;102572.66;;;4.04;100.00
84190;BME280;74321;53.406;8.146;2024-01-25T04:57:49;102574.63;;;4.26;100.00
84190;BME280;74321;53.406;8.146;2024-01-25T05:02:57;102555.94;;;4.07;100.00
84190;BME280;74321;53.406;8.146;2024-01-25T05:07:59;102565.91;;;4.04;100.00
84190;BME280;74321;53.406;8.146;2024-01-25T05:13:01;102556.91;;;3.93;100.00
84190;BME280;74321;53.406;8.146;2024-01-25T05:18:04;102576.06;;;4.04;100.00
84190;BME280;74321;53.406;8.146;2024-01-25T05:23:06;102558.56;;;3.92;100.00
84190;BME280;74321;53.406;8.146;2024-01-25T05:28:08;102587.25;;;4.08;100.00
84190;BME280;74321;53.406;8.146;2024-01-25T05:33:10;102578.78;;;4.07;100.00
84190;BME280;74321;53.406;8.146;2024-01-25T05:38:13;102540.81;;;3.76;100.00
84190;BME280;74321;53.406;8.146;2024-01-25T05:43:18;102591.00;;;3.98;100.00
84190;BME280;74321;53.406;8.146;2024-01-25T05:48:20;102567.44;;;3.84;100.00
84190;BME280;74321;53.406;8.146;2024-01-25T05:53:25;102509.84;;;3.49;100.00
84190;BME280;74321;53.406;8.146;2024-01-25T05:58:27;102590.41;;;3.87;100.00
84190;BME280;74321;53.406;8.146;2024-01-25T06:03:29;102513.72;;;3.43;100.00
84190;BME280;74321;53.406;8.146;2024-01-25T06:08:32;102590.81;;;3.95;100.00
84190;BME280;74321;53.406;8.146;2024-01-25T06:13:34;102434.03;;;3.05;100.00
84190;BME280;74321;53.406;8.146;2024-01-25T06:18:36;102614.50;;;4.12;100.00
84190;BME280;74321;53.406;8.146;2024-01-25T06:23:38;102624.66;;;4.28;100.00
84190;BME280;74321;53.406;8.146;2024-01-25T06:28:40;102628.63;;;4.23;100.00
84190;BME280;74321;53.406;8.146;2024-01-25T06:33:43;102640.28;;;4.36;100.00
84190;BME280;74321;53.406;8.146;2024-01-25T06:38:49;102566.78;;;3.88;100.00
84190;BME280;74321;53.406;8.146;2024-01-25T06:43:53;102632.84;;;4.22;100.00
84190;BME280;74321;53.406;8.146;2024-01-25T06:48:56;102639.88;;;4.28;100.00
84190;BME280;74321;53.406;8.146;2024-01-25T06:53:58;102642.75;;;4.18;100.00
84190;BME280;74321;53.406;8.146;2024-01-25T06:59:00;102656.16;;;4.32;100.00
84190;BME280;74321;53.406;8.146;2024-01-25T07:04:02;102666.09;;;4.45;100.00
84190;BME280;74321;53.406;8.146;2024-01-25T07:09:08;102635.59;;;4.27;100.00
84190;BME280;74321;53.406;8.146;2024-01-25T07:14:10;102674.97;;;4.69;100.00
84190;BME280;74321;53.406;8.146;2024-01-25T07:19:12;102617.28;;;4.33;100.00
84190;BME280;74321;53.406;8.146;2024-01-25T07:24:17;102640.81;;;4.30;100.00
84190;BME280;74321;53.406;8.146;2024-01-25T07:29:19;102680.31;;;4.41;100.00
84190;BME280;74321;53.406;8.146;2024-01-25T07:34:21;102699.19;;;4.46;100.00
84190;BME280;74321;53.406;8.146;2024-01-25T07:39:23;102632.13;;;4.09;100.00
84190;BME280;74321;53.406;8.146;2024-01-25T07:44:31;102640.44;;;4.22;100.00
84190;BME280;74321;53.406;8.146;2024-01-25T07:49:35;102691.41;;;4.60;100.00
84190;BME280;74321;53.406;8.146;2024-01-25T07:54:38;102708.16;;;4.72;100.00
84190;BME280;74321;53.406;8.146;2024-01-25T07:59:40;102711.28;;;4.85;100.00
84190;BME280;74321;53.406;8.146;2024-01-25T08:04:42;102728.50;;;4.90;100.00
84190;BME280;74321;53.406;8.146;2024-01-25T08:09:44;102731.84;;;4.89;100.00
84190;BME280;74321;53.406;8.146;2024-01-25T08:14:46;102739.88;;;4.97;100.00
84190;BME280;74321;53.406;8.146;2024-01-25T08:19:48;102735.78;;;5.00;100.00
84190;BME280;74321;53.406;8.146;2024-01-25T08:24:53;102729.59;;;4.95;100.00
84190;BME280;74321;53.406;8.146;2024-01-25T08:29:55;102711.81;;;4.95;100.00
84190;BME280;74321;53.406;8.146;2024-01-25T08:34:57;102727.50;;;5.04;100.00
84190;BME280;74321;53.406;8.146;2024-01-25T08:40:01;102725.53;;;5.15;100.00
84190;BME280;74321;53.406;8.146;2024-01-25T08:45:04;102705.81;;;5.11;100.00
84190;BME280;74321;53.406;8.146;2024-01-25T08:50:10;102738.38;;;5.18;100.00
84190;BME280;74321;53.406;8.146;2024-01-25T08:55:14;102689.13;;;4.98;100.00
84190;BME280;74321;53.406;8.146;2024-01-25T09:00:16;102754.88;;;5.44;100.00
84190;BME280;74321;53.406;8.146;2024-01-25T09:05:18;102745.75;;;5.48;100.00
84190;BME280;74321;53.406;8.146;2024-01-25T09:10:21;102658.28;;;5.08;100.00
84190;BME280;74321;53.406;8.146;2024-01-25T09:15:26;102730.19;;;5.59;100.00
84190;BME280;74321;53.406;8.146;2024-01-25T09:20:31;102673.09;;;5.35;100.00
84190;BME280;74321;53.406;8.146;2024-01-25T09:25:34;102689.28;;;5.37;100.00
84190;BME280;74321;53.406;8.146;2024-01-25T09:30:36;102773.59;;;5.80;100.00
84190;BME280;74321;53.406;8.146;2024-01-25T09:35:38;102742.03;;;5.77;100.00
84190;BME280;74321;53.406;8.146;2024-01-25T09:40:40;102795.66;;;6.17;100.00
84190;BME280;74321;53.406;8.146;2024-01-25T09:45:43;102778.31;;;6.08;100.00
84190;BME280;74321;53.406;8.146;2024-01-25T09:50:48;102737.66;;;5.74;100.00
84190;BME280;74321;53.406;8.146;2024-01-25T09:56:06;102788.69;;;6.69;100.00
84190;BME280;74321;53.406;8.146;2024-01-25T10:01:15;102784.16;;;6.62;97.16
84190;BME280;74321;53.406;8.146;2024-01-25T10:06:17;102803.50;;;6.78;98.71
84190;BME280;74321;53.406;8.146;2024-01-25T10:11:22;102800.94;;;6.59;97.23
84190;BME280;74321;53.406;8.146;2024-01-25T10:16:24;102801.28;;;6.47;98.52
84190;BME280;74321;53.406;8.146;2024-01-25T10:21:29;102799.63;;;6.47;98.46
84190;BME280;74321;53.406;8.146;2024-01-25T10:26:34;102752.78;;;6.63;97.22
84190;BME280;74321;53.406;8.146;2024-01-25T10:31:38;102786.00;;;7.26;94.11
84190;BME280;74321;53.406;8.146;2024-01-25T10:36:42;102780.22;;;7.51;92.08
84190;BME280;74321;53.406;8.146;2024-01-25T10:41:47;102781.50;;;8.98;82.98
84190;BME280;74321;53.406;8.146;2024-01-25T10:46:53;102793.81;;;10.16;75.29
84190;BME280;74321;53.406;8.146;2024-01-25T10:51:56;102794.63;;;10.15;73.81
84190;BME280;74321;53.406;8.146;2024-01-25T10:56:58;102817.91;;;9.94;74.24
84190;BME280;74321;53.406;8.146;2024-01-25T11:02:01;102778.22;;;12.07;67.58
84190;BME280;74321;53.406;8.146;2024-01-25T11:07:06;102784.94;;;12.85;62.23
84190;BME280;74321;53.406;8.146;2024-01-25T11:12:11;102741.13;;;11.57;66.57
84190;BME280;74321;53.406;8.146;2024-01-25T11:17:22;102798.13;;;11.09;69.55
84190;BME280;74321;53.406;8.146;2024-01-25T11:22:34;102785.44;;;11.15;66.43
84190;BME280;74321;53.406;8.146;2024-01-25T11:27:36;102777.47;;;10.41;69.71
84190;BME280;74321;53.406;8.146;2024-01-25T11:32:39;102782.00;;;12.23;66.74
84190;BME280;74321;53.406;8.146;2024-01-25T11:37:45;102697.78;;;13.03;62.51
84190;BME280;74321;53.406;8.146;2024-01-25T11:42:48;102751.56;;;11.27;66.63
84190;BME280;74321;53.406;8.146;2024-01-25T11:47:59;102763.69;;;10.09;72.42
84190;BME280;74321;53.406;8.146;2024-01-25T11:53:01;102741.50;;;10.68;66.77
84190;BME280;74321;53.406;8.146;2024-01-25T11:58:05;102757.97;;;11.45;66.47
84190;BME280;74321;53.406;8.146;2024-01-25T12:03:09;102737.56;;;12.74;64.82
84190;BME280;74321;53.406;8.146;2024-01-25T12:08:14;102699.50;;;11.71;63.70
84190;BME280;74321;53.406;8.146;2024-01-25T12:13:16;102752.00;;;13.14;60.58
84190;BME280;74321;53.406;8.146;2024-01-25T12:18:18;102725.72;;;12.36;60.58
84190;BME280;74321;53.406;8.146;2024-01-25T12:23:21;102684.44;;;8.76;73.84
84190;BME280;74321;53.406;8.146;2024-01-25T12:28:26;102734.16;;;8.36;77.60
84190;BME280;74321;53.406;8.146;2024-01-25T12:33:28;102757.63;;;8.03;79.02
84190;BME280;74321;53.406;8.146;2024-01-25T12:38:31;102721.78;;;13.02;61.87
84190;BME280;74321;53.406;8.146;2024-01-25T12:43:36;102748.63;;;15.24;53.52
84190;BME280;74321;53.406;8.146;2024-01-25T12:48:38;102736.44;;;14.26;54.57
84190;BME280;74321;53.406;8.146;2024-01-25T12:53:41;102679.16;;;14.54;55.18
84190;BME280;74321;53.406;8.146;2024-01-25T12:58:43;102717.19;;;14.72;54.18
84190;BME280;74321;53.406;8.146;2024-01-25T13:03:45;102720.34;;;12.68;57.46
84190;BME280;74321;53.406;8.146;2024-01-25T13:08:49;102684.25;;;10.07;65.18
84190;BME280;74321;53.406;8.146;2024-01-25T13:13:51;102729.44;;;8.96;74.68
84190;BME280;74321;53.406;8.146;2024-01-25T13:18:53;102725.53;;;8.34;78.81
84190;BME280;74321;53.406;8.146;2024-01-25T13:23:55;102722.34;;;8.17;79.88
84190;BME280;74321;53.406;8.146;2024-01-25T13:28:58;102732.09;;;8.03;81.11
84190;BME280;74321;53.406;8.146;2024-01-25T13:34:04;102741.63;;;8.09;80.40
84190;BME280;74321;53.406;8.146;2024-01-25T13:39:07;102650.03;;;8.18;75.84
84190;BME280;74321;53.406;8.146;2024-01-25T13:44:11;102721.31;;;7.03;86.59
84190;BME280;74321;53.406;8.146;2024-01-25T13:49:13;102649.28;;;6.46;88.38
84190;BME280;74321;53.406;8.146;2024-01-25T13:54:17;102680.84;;;6.50;89.32
84190;BME280;74321;53.406;8.146;2024-01-25T13:59:20;102683.28;;;6.67;88.92
84190;BME280;74321;53.406;8.146;2024-01-25T14:04:22;102713.91;;;6.88;88.12
84190;BME280;74321;53.406;8.146;2024-01-25T14:09:28;102731.81;;;6.90;90.20
84190;BME280;74321;53.406;8.146;2024-01-25T14:14:31;102730.84;;;6.67;90.89
84190;BME280;74321;53.406;8.146;2024-01-25T14:19:33;102676.16;;;6.39;91.20
84190;BME280;74321;53.406;8.146;2024-01-25T14:24:36;102727.09;;;6.59;92.17
84190;BME280;74321;53.406;8.146;2024-01-25T14:29:41;102747.19;;;6.53;92.32
84190;BME280;74321;53.406;8.146;2024-01-25T14:34:43;102721.72;;;6.14;94.45
84190;BME280;74321;53.406;8.146;2024-01-25T14:39:48;102738.84;;;5.99;96.11
84190;BME280;74321;53.406;8.146;2024-01-25T14:45:10;102661.22;;;5.53;97.18
84190;BME280;74321;53.406;8.146;2024-01-25T14:50:13;102717.44;;;5.77;98.26
84190;BME280;74321;53.406;8.146;2024-01-25T14:55:15;102726.19;;;5.64;99.09
84190;BME280;74321;53.406;8.146;2024-01-25T15:00:17;102702.78;;;5.36;100.00
84190;BME280;74321;53.406;8.146;2024-01-25T15:05:22;102662.19;;;5.02;100.00
84190;BME280;74321;53.406;8.146;2024-01-25T15:10:24;102699.25;;;5.15;100.00
84190;BME280;74321;53.406;8.146;2024-01-25T15:15:26;102702.28;;;5.07;100.00
84190;BME280;74321;53.406;8.146;2024-01-25T15:20:30;102640.06;;;4.65;100.00
84190;BME280;74321;53.406;8.146;2024-01-25T15:25:33;102679.38;;;4.90;100.00
84190;BME280;74321;53.406;8.146;2024-01-25T15:30:35;102663.88;;;4.67;100.00
84190;BME280;74321;53.406;8.146;2024-01-25T15:35:37;102693.78;;;4.73;100.00
84190;BME280;74321;53.406;8.146;2024-01-25T15:40:39;102645.88;;;4.30;100.00
84190;BME280;74321;53.406;8.146;2024-01-25T15:45:45;102635.44;;;4.40;100.00
84190;BME280;74321;53.406;8.146;2024-01-25T15:50:48;102689.50;;;4.72;100.00
84190;BME280;74321;53.406;8.146;2024-01-25T15:55:51;102613.25;;;4.20;100.00
84190;BME280;74321;53.406;8.146;2024-01-25T16:00:56;102669.19;;;4.72;100.00
84190;BME280;74321;53.406;8.146;2024-01-25T16:05:58;102697.16;;;4.90;100.00
84190;BME280;74321;53.406;8.146;2024-01-25T16:11:00;102691.69;;;4.82;100.00
84190;BME280;74321;53.406;8.146;2024-01-25T16:16:04;102637.78;;;4.54;100.00
84190;BME280;74321;53.406;8.146;2024-01-25T16:21:06;102673.16;;;4.67;100.00
84190;BME280;74321;53.406;8.146;2024-01-25T16:26:11;102693.38;;;4.82;100.00
84190;BME280;74321;53.406;8.146;2024-01-25T16:31:19;102697.59;;;4.65;100.00
84190;BME280;74321;53.406;8.146;2024-01-25T16:36:21;102691.72;;;4.66;100.00
84190;BME280;74321;53.406;8.146;2024-01-25T16:41:23;102668.69;;;4.63;100.00
84190;BME280;74321;53.406;8.146;2024-01-25T16:46:27;102636.56;;;4.63;100.00
84190;BME280;74321;53.406;8.146;2024-01-25T16:51:32;102659.97;;;4.74;100.00
84190;BME280;74321;53.406;8.146;2024-01-25T16:56:34;102641.56;;;4.62;100.00
84190;BME280;74321;53.406;8.146;2024-01-25T17:01:36;102664.66;;;4.66;100.00
84190;BME280;74321;53.406;8.146;2024-01-25T17:06:38;102662.53;;;4.58;100.00
84190;BME280;74321;53.406;8.146;2024-01-25T17:11:44;102666.97;;;4.62;100.00
84190;BME280;74321;53.406;8.146;2024-01-25T17:16:48;102648.63;;;4.67;100.00
84190;BME280;74321;53.406;8.146;2024-01-25T17:21:50;102655.78;;;4.58;100.00
84190;BME280;74321;53.406;8.146;2024-01-25T17:26:53;102645.56;;;4.57;100.00
84190;BME280;74321;53.406;8.146;2024-01-25T17:31:55;102588.03;;;4.23;100.00
84190;BME280;74321;53.406;8.146;2024-01-25T17:36:58;102639.22;;;4.48;100.00
84190;BME280;74321;53.406;8.146;2024-01-25T17:42:00;102629.97;;;4.33;100.00
84190;BME280;74321;53.406;8.146;2024-01-25T17:47:02;102621.78;;;4.38;100.00
84190;BME280;74321;53.406;8.146;2024-01-25T17:52:04;102607.44;;;4.39;100.00
84190;BME280;74321;53.406;8.146;2024-01-25T17:57:06;102634.16;;;4.48;100.00
84190;BME280;74321;53.406;8.146;2024-01-25T18:02:08;102631.59;;;4.65;100.00
84190;BME280;74321;53.406;8.146;2024-01-25T18:07:10;102611.84;;;4.59;100.00
84190;BME280;74321;53.406;8.146;2024-01-25T18:12:12;102607.56;;;4.58;100.00
84190;BME280;74321;53.406;8.146;2024-01-25T18:17:14;102611.34;;;4.66;100.00
84190;BME280;74321;53.406;8.146;2024-01-25T18:22:16;102591.47;;;4.58;100.00
84190;BME280;74321;53.406;8.146;2024-01-25T18:27:18;102589.78;;;4.58;100.00
84190;BME280;74321;53.406;8.146;2024-01-25T18:32:21;102560.22;;;4.42;100.00
84190;BME280;74321;53.406;8.146;2024-01-25T18:37:23;102578.47;;;4.69;100.00
84190;BME280;74321;53.406;8.146;2024-01-25T18:42:25;102569.53;;;4.60;100.00
84190;BME280;74321;53.406;8.146;2024-01-25T18:47:27;102588.25;;;4.62;100.00
84190;BME280;74321;53.406;8.146;2024-01-25T18:52:32;102566.63;;;4.52;100.00
84190;BME280;74321;53.406;8.146;2024-01-25T18:57:35;102505.81;;;4.19;100.00
84190;BME280;74321;53.406;8.146;2024-01-25T19:02:37;102574.19;;;4.68;100.00
84190;BME280;74321;53.406;8.146;2024-01-25T19:07:40;102557.16;;;4.66;100.00
84190;BME280;74321;53.406;8.146;2024-01-25T19:12:43;102524.22;;;4.49;99.50
84190;BME280;74321;53.406;8.146;2024-01-25T19:17:45;102571.91;;;4.91;98.41
84190;BME280;74321;53.406;8.146;2024-01-25T19:22:47;102573.69;;;4.93;96.95
84190;BME280;74321;53.406;8.146;2024-01-25T19:27:49;102500.56;;;4.50;97.41
84190;BME280;74321;53.406;8.146;2024-01-25T19:32:52;102523.84;;;4.77;96.23
84190;BME280;74321;53.406;8.146;2024-01-25T19:37:54;102482.78;;;4.68;96.15
84190;BME280;74321;53.406;8.146;2024-01-25T19:42:56;102555.44;;;5.20;95.65
84190;BME280;74321;53.406;8.146;2024-01-25T19:47:58;102536.66;;;5.16;94.68
84190;BME280;74321;53.406;8.146;2024-01-25T19:53:01;102521.59;;;5.21;93.69
84190;BME280;74321;53.406;8.146;2024-01-25T19:58:05;102540.56;;;5.27;93.73
84190;BME280;74321;53.406;8.146;2024-01-25T20:03:11;102514.66;;;5.17;94.54
84190;BME280;74321;53.406;8.146;2024-01-25T20:08:14;102514.78;;;5.20;94.93
84190;BME280;74321;53.406;8.146;2024-01-25T20:13:16;102494.84;;;5.10;94.97
84190;BME280;74321;53.406;8.146;2024-01-25T20:18:21;102425.47;;;4.73;94.62
84190;BME280;74321;53.406;8.146;2024-01-25T20:23:23;102508.44;;;5.29;94.64
84190;BME280;74321;53.406;8.146;2024-01-25T20:28:25;102458.94;;;5.02;94.64
84190;BME280;74321;53.406;8.146;2024-01-25T20:33:27;102485.38;;;5.25;94.70
84190;BME280;74321;53.406;8.146;2024-01-25T20:38:29;102460.56;;;5.19;94.46
84190;BME280;74321;53.406;8.146;2024-01-25T20:43:31;102474.47;;;5.27;95.09
84190;BME280;74321;53.406;8.146;2024-01-25T20:48:33;102446.78;;;5.14;95.36
84190;BME280;74321;53.406;8.146;2024-01-25T20:53:37;102402.84;;;4.97;95.11
84190;BME280;74321;53.406;8.146;2024-01-25T20:58:42;102471.09;;;5.46;95.09
84190;BME280;74321;53.406;8.146;2024-01-25T21:03:46;102461.84;;;5.48;95.42
84190;BME280;74321;53.406;8.146;2024-01-25T21:08:48;102444.00;;;5.47;95.74
84190;BME280;74321;53.406;8.146;2024-01-25T21:13:51;102442.78;;;5.39;97.72
84190;BME280;74321;53.406;8.146;2024-01-25T21:18:53;102348.91;;;4.84;100.00
84190;BME280;74321;53.406;8.146;2024-01-25T21:23:58;102429.94;;;5.16;100.00
84190;BME280;74321;53.406;8.146;2024-01-25T21:29:00;102425.44;;;5.11;100.00
84190;BME280;74321;53.406;8.146;2024-01-25T21:34:02;102378.38;;;4.80;100.00
84190;BME280;74321;53.406;8.146;2024-01-25T21:39:06;102420.47;;;4.94;100.00
84190;BME280;74321;53.406;8.146;2024-01-25T21:44:08;102425.84;;;5.00;100.00
84190;BME280;74321;53.406;8.146;2024-01-25T21:49:14;102383.25;;;4.75;100.00
84190;BME280;74321;53.406;8.146;2024-01-25T21:54:21;102412.81;;;4.93;100.00
84190;BME280;74321;53.406;8.146;2024-01-25T21:59:23;102419.69;;;4.95;100.00
84190;BME280;74321;53.406;8.146;2024-01-25T22:04:25;102429.25;;;5.01;100.00
84190;BME280;74321;53.406;8.146;2024-01-25T22:09:28;102422.38;;;4.98;100.00
84190;BME280;74321;53.406;8.146;2024-01-25T22:14:30;102396.81;;;4.95;100.00
84190;BME280;74321;53.406;8.146;2024-01-25T22:19:32;102334.59;;;4.66;100.00
84190;BME280;74321;53.406;8.146;2024-01-25T22:24:34;102324.28;;;4.63;100.00
84190;BME280;74321;53.406;8.146;2024-01-25T22:29:36;102368.34;;;5.02;100.00
84190;BME280;74321;53.406;8.146;2024-01-25T22:34:38;102379.00;;;5.13;100.00
84190;BME280;74321;53.406;8.146;2024-01-25T22:39:40;102300.91;;;4.70;100.00
84190;BME280;74321;53.406;8.146;2024-01-25T22:44:42;102388.00;;;5.26;100.00
84190;BME280;74321;53.406;8.146;2024-01-25T22:49:44;102382.00;;;5.24;100.00
84190;BME280;74321;53.406;8.146;2024-01-25T22:54:46;102304.78;;;4.82;100.00
84190;BME280;74321;53.406;8.146;2024-01-25T22:59:49;102369.34;;;5.25;100.00
84190;BME280;74321;53.406;8.146;2024-01-25T23:04:54;102374.69;;;5.31;100.00
84190;BME280;74321;53.406;8.146;2024-01-25T23:09:56;102357.56;;;5.27;100.00
84190;BME280;74321;53.406;8.146;2024-01-25T23:14:58;102296.16;;;4.97;100.00
84190;BME280;74321;53.406;8.146;2024-01-25T23:20:00;102358.69;;;5.34;100.00
84190;BME280;74321;53.406;8.146;2024-01-25T23:25:03;102283.38;;;4.96;100.00
84190;BME280;74321;53.406;8.146;2024-01-25T23:30:07;102362.56;;;5.45;100.00
84190;BME280;74321;53.406;8.146;2024-01-25T23:35:09;102325.66;;;5.34;100.00
84190;BME280;74321;53.406;8.146;2024-01-25T23:40:11;102360.28;;;5.51;100.00
84190;BME280;74321;53.406;8.146;2024-01-25T23:45:15;102349.94;;;5.47;100.00
84190;BME280;74321;53.406;8.146;2024-01-25T23:50:23;102345.34;;;5.59;100.00
84190;BME280;74321;53.406;8.146;2024-01-25T23:55:26;102305.03;;;5.47;100.00
